Boston, Massachusetts
Traffic Map
Current Weather Conditions
Boston, Massachusetts
Clear
Clear
76°
Feels Like: 76°
Wind Chill: 76° Ceiling: Unl
Heat Index: 76° Visibility: 10mi
Dew Point: 59° Wind: 7mph
Humidity: 56% Direction: 340° (NNW)
Pressure: 30.07in Gusts: 0mph
Raw Report DataKBOS 270554Z 34006KT 10SM CLR 24/15 A3007 RMK AO2 SLP181 T02440150 10300 20244 51018
Traffic Incident Summary
Active as of:
Severity:
Category:
InformationThere was an issue retrieving the traffic information for this location. Please try a different location or try again shortly.
Advertisements
Track Severe Weather on mobile